Time;durP1;ratioP1;P1;durP2;ratioP2;P2;SDS_P1;SDS_P2;PMS_P1;PMS_P2;Temp;Humidity;BMP_temperature;BMP_pressure;BME280_temperature;BME280_humidity;BME280_pressure;Samples;Min_cycle;Max_cycle;Signal;HPM_P1;HPM_P2
2021/07/19 00:01:03;;;;;;;;;10.00;8.00;;;;;22.62;56.02;101324.59;4973752;28;54281;-60
2021/07/19 00:03:29;;;;;;;;;9.75;8.25;;;;;22.57;55.88;101326.19;4973605;28;59474;-60
2021/07/19 00:05:54;;;;;;;;;11.00;8.00;;;;;22.54;56.22;101324.75;4974264;28;45445;-61
2021/07/19 00:08:19;;;;;;;;;6.50;6.50;;;;;22.49;56.64;101316.47;4974093;28;45824;-59
2021/07/19 00:10:45;;;;;;;;;7.75;6.50;;;;;22.46;56.91;101316.84;4974132;28;45399;-60
2021/07/19 00:13:10;;;;;;;;;8.50;8.50;;;;;22.41;56.79;101319.25;4973280;28;64390;-59
2021/07/19 00:15:36;;;;;;;;;9.00;8.75;;;;;22.37;56.98;101322.31;4972190;28;62975;-59
2021/07/19 00:18:01;;;;;;;;;10.00;8.75;;;;;22.35;56.92;101318.19;4972840;28;69506;-59
2021/07/19 00:20:26;;;;;;;;;7.25;7.25;;;;;22.31;57.06;101325.78;4973269;28;56870;-59
2021/07/19 00:22:52;;;;;;;;;9.00;7.50;;;;;22.27;57.30;101324.50;4974121;28;45287;-60
2021/07/19 00:25:18;;;;;;;;;10.00;7.75;;;;;22.22;57.44;101318.94;4973489;28;52886;-59
2021/07/19 00:27:44;;;;;;;;;9.75;7.50;;;;;22.17;57.60;101319.50;4973575;28;46240;-59
2021/07/19 00:30:10;;;;;;;;;7.25;7.00;;;;;22.13;56.99;101320.09;4975558;27;45489;-60
2021/07/19 00:32:36;;;;;;;;;12.50;9.00;;;;;22.08;57.36;101315.31;4974067;28;45359;-59
2021/07/19 00:35:03;;;;;;;;;7.25;7.00;;;;;22.05;57.15;101321.06;4975567;27;45352;-60
2021/07/19 00:37:29;;;;;;;;;7.50;5.75;;;;;22.00;57.26;101318.13;4973635;28;45292;-60
2021/07/19 00:39:54;;;;;;;;;10.00;9.00;;;;;21.96;58.08;101317.69;4972896;28;60800;-60
2021/07/19 00:42:20;;;;;;;;;10.00;7.50;;;;;21.95;58.08;101318.72;4973112;28;59003;-60
2021/07/19 00:44:45;;;;;;;;;7.00;7.00;;;;;21.94;58.03;101325.09;4972900;28;62270;-60
2021/07/19 00:47:10;;;;;;;;;7.00;6.75;;;;;21.91;57.70;101323.63;4974304;28;67808;-59
2021/07/19 00:49:36;;;;;;;;;8.50;8.00;;;;;21.87;57.97;101321.53;4975288;28;45320;-59
2021/07/19 00:52:01;;;;;;;;;8.00;6.50;;;;;21.85;57.86;101320.88;4959200;28;45327;-60
2021/07/19 00:54:28;;;;;;;;;8.50;8.00;;;;;21.84;58.44;101314.72;4976625;28;45220;-59
2021/07/19 00:56:55;;;;;;;;;9.75;8.25;;;;;21.83;57.84;101321.09;4976423;28;45271;-59
2021/07/19 00:59:21;;;;;;;;;8.50;8.50;;;;;21.82;58.45;101318.59;4976433;28;46016;-60
2021/07/19 01:01:47;;;;;;;;;12.25;9.50;;;;;21.77;58.60;101317.31;4976717;28;45340;-60
2021/07/19 01:04:12;;;;;;;;;10.25;8.00;;;;;21.73;58.36;101305.34;4959042;28;45452;-60
2021/07/19 01:06:38;;;;;;;;;6.50;6.50;;;;;21.70;58.45;101316.44;4974135;28;70725;-60
2021/07/19 01:09:05;;;;;;;;;11.25;7.50;;;;;21.67;58.85;101313.31;4974459;28;64347;-59
2021/07/19 01:11:30;;;;;;;;;10.25;7.25;;;;;21.62;59.04;101312.03;4978308;27;45464;-60
2021/07/19 01:13:56;;;;;;;;;9.00;8.50;;;;;21.61;58.82;101307.66;4976319;28;45406;-59
2021/07/19 01:16:21;;;;;;;;;9.25;9.00;;;;;21.60;58.86;101308.69;4976249;28;45393;-60
2021/07/19 01:18:47;;;;;;;;;10.75;10.75;;;;;21.60;59.43;101305.19;4974984;28;45365;-59
2021/07/19 01:21:21;;;;;;;;;9.25;8.50;;;;;21.55;59.46;101307.63;4973938;28;65232;-60
2021/07/19 01:24:08;;;;;;;;;10.75;9.25;;;;;21.50;58.98;101303.66;4976309;28;45593;-58
2021/07/19 01:27:04;;;;;;;;;11.75;8.75;;;;;21.49;59.19;101303.84;4976004;28;46006;-59
2021/07/19 01:29:29;;;;;;;;;8.25;7.50;;;;;21.45;59.89;101303.41;4976160;28;45735;-60
2021/07/19 01:31:55;;;;;;;;;12.25;10.25;;;;;21.41;59.76;101295.97;4957929;28;67092;-60
2021/07/19 01:34:22;;;;;;;;;7.50;7.50;;;;;21.36;60.15;101288.50;4957960;28;63441;-59
2021/07/19 01:36:53;;;;;;;;;8.25;8.00;;;;;21.35;59.71;101297.53;4975933;28;45347;-60
2021/07/19 01:39:18;;;;;;;;;7.50;7.00;;;;;21.33;60.20;101294.22;4974783;28;45317;-60
2021/07/19 01:41:44;;;;;;;;;10.25;7.25;;;;;21.33;60.08;101294.22;4975200;28;66758;-58
2021/07/19 01:44:09;;;;;;;;;10.75;8.50;;;;;21.34;59.83;101296.72;4974131;28;63926;-61
2021/07/19 01:46:35;;;;;;;;;10.00;8.00;;;;;21.37;59.80;101292.00;4973949;28;67051;-60
2021/07/19 01:49:00;;;;;;;;;9.25;6.75;;;;;21.35;59.84;101295.69;4958537;28;45580;-61
2021/07/19 01:51:26;;;;;;;;;9.25;8.00;;;;;21.35;59.93;101294.84;4958649;28;45555;-61
2021/07/19 01:53:51;;;;;;;;;11.00;9.00;;;;;21.35;60.13;101295.69;4975963;28;45580;-61
2021/07/19 01:56:17;;;;;;;;;12.25;8.50;;;;;21.36;59.99;101299.19;4974516;28;45389;-61
2021/07/19 01:58:42;;;;;;;;;7.50;6.50;;;;;21.35;60.65;101302.88;4973112;28;67049;-61
2021/07/19 02:01:08;;;;;;;;;9.25;9.25;;;;;21.33;60.16;101302.25;4973757;28;65987;-61
2021/07/19 02:03:33;;;;;;;;;9.25;8.75;;;;;21.31;60.48;101306.94;4973681;28;65024;-61
2021/07/19 02:05:58;;;;;;;;;11.25;8.50;;;;;21.30;60.74;101305.28;4975540;28;48023;-60
2021/07/19 02:08:24;;;;;;;;;9.50;8.25;;;;;21.29;60.42;101300.97;4975715;28;45299;-59
2021/07/19 02:10:50;;;;;;;;;8.25;8.00;;;;;21.27;60.68;101294.97;4973591;28;65787;-61
2021/07/19 02:13:16;;;;;;;;;9.50;8.50;;;;;21.26;60.91;101291.47;4975610;28;45339;-60
2021/07/19 02:15:41;;;;;;;;;7.25;7.25;;;;;21.24;61.00;101292.69;4975568;28;45956;-61
2021/07/19 02:18:07;;;;;;;;;12.25;10.50;;;;;21.24;61.02;101298.03;4974320;28;45245;-61
2021/07/19 02:20:32;;;;;;;;;12.50;10.25;;;;;21.18;61.03;101287.09;4975197;28;45730;-58
2021/07/19 02:22:58;;;;;;;;;11.50;10.50;;;;;21.14;60.83;101283.13;4974574;28;45338;-61
2021/07/19 02:25:24;;;;;;;;;13.75;11.00;;;;;21.12;60.86;101293.19;4974102;28;46543;-61
2021/07/19 02:27:50;;;;;;;;;13.75;11.00;;;;;21.07;60.96;101292.91;4958027;28;45358;-60
2021/07/19 02:30:17;;;;;;;;;11.75;10.50;;;;;21.04;60.90;101293.28;4974386;28;45474;-60
2021/07/19 02:32:47;;;;;;;;;10.25;10.00;;;;;21.02;61.35;101298.00;4974102;28;45488;-60
2021/07/19 02:35:13;;;;;;;;;8.50;8.25;;;;;21.00;61.37;101300.03;4975596;28;45346;-60
2021/07/19 02:37:39;;;;;;;;;11.00;10.00;;;;;20.96;61.05;101310.22;4975182;28;45217;-60
2021/07/19 02:40:05;;;;;;;;;10.75;8.00;;;;;20.96;61.66;101306.75;4974004;28;45402;-60
2021/07/19 02:42:31;;;;;;;;;13.50;10.50;;;;;20.94;61.28;101304.25;4973781;28;45487;-61
2021/07/19 02:44:56;;;;;;;;;10.50;9.75;;;;;20.89;61.56;101302.16;4973176;28;67832;-61
2021/07/19 02:47:24;;;;;;;;;10.75;9.00;;;;;20.84;61.56;101299.19;4973176;28;69002;-61
2021/07/19 02:49:50;;;;;;;;;12.75;10.00;;;;;20.83;61.87;101305.56;4957905;28;45325;-61
2021/07/19 02:52:15;;;;;;;;;10.00;10.00;;;;;20.81;61.37;101307.59;4956806;28;66936;-61
2021/07/19 02:54:40;;;;;;;;;12.00;8.75;;;;;20.79;61.63;101309.59;4973755;28;45892;-61
2021/07/19 02:57:06;;;;;;;;;12.00;10.00;;;;;20.75;61.89;101309.13;4956632;28;67995;-60
2021/07/19 02:59:32;;;;;;;;;9.75;9.00;;;;;20.74;61.71;101311.97;4974210;28;65013;-60
2021/07/19 03:01:57;;;;;;;;;9.75;8.25;;;;;20.72;61.59;101311.31;4974791;28;53205;-61
2021/07/19 03:04:22;;;;;;;;;11.50;10.25;;;;;20.70;62.17;101303.50;4957209;28;52784;-61
2021/07/19 03:06:48;;;;;;;;;10.75;9.75;;;;;20.67;62.16;101298.53;4973850;28;45379;-61
2021/07/19 03:09:13;;;;;;;;;8.25;8.00;;;;;20.66;62.24;101296.06;4955563;28;65160;-61
2021/07/19 03:11:41;;;;;;;;;12.75;11.00;;;;;20.61;62.34;101297.44;4957663;28;45359;-61
2021/07/19 03:14:08;;;;;;;;;8.50;8.50;;;;;20.60;62.61;101290.44;4973723;28;45481;-61
2021/07/19 03:16:34;;;;;;;;;10.25;8.75;;;;;20.58;62.29;101297.81;4975237;28;45454;-61
2021/07/19 03:19:00;;;;;;;;;10.75;9.25;;;;;20.59;62.30;101288.78;4956703;28;59788;-60
2021/07/19 03:21:26;;;;;;;;;13.00;10.25;;;;;20.61;62.33;101297.44;4957090;28;45532;-61
2021/07/19 03:23:51;;;;;;;;;12.00;10.75;;;;;20.63;62.36;101291.09;4973167;28;54339;-60
2021/07/19 03:26:19;;;;;;;;;12.25;10.75;;;;;20.63;62.51;101299.09;4972448;28;67928;-60
2021/07/19 03:28:45;;;;;;;;;13.00;11.50;;;;;20.63;62.78;101296.44;4973725;28;45309;-60
2021/07/19 03:31:10;;;;;;;;;13.25;9.75;;;;;20.61;62.16;101302.78;4974640;28;45153;-60
2021/07/19 03:33:41;;;;;;;;;10.75;9.25;;;;;20.57;62.38;101297.97;4974745;28;45429;-60
2021/07/19 03:36:07;;;;;;;;;11.00;9.25;;;;;20.52;62.24;101300.38;4957836;28;45383;-61
2021/07/19 03:38:32;;;;;;;;;14.00;13.00;;;;;20.49;63.00;101293.56;4973375;28;45471;-61
2021/07/19 03:40:57;;;;;;;;;14.00;11.00;;;;;20.43;62.93;101291.63;4974760;28;45514;-61
2021/07/19 03:43:23;;;;;;;;;11.50;10.25;;;;;20.38;63.05;101294.00;4972299;28;71610;-61
2021/07/19 03:45:48;;;;;;;;;14.00;11.00;;;;;20.32;62.94;101290.25;4956968;28;45476;-60
2021/07/19 03:48:17;;;;;;;;;13.00;11.00;;;;;20.29;63.25;101287.94;4973310;28;45380;-61
2021/07/19 03:50:42;;;;;;;;;19.00;13.25;;;;;20.25;63.37;101286.66;4973208;28;45579;-60
2021/07/19 03:53:08;;;;;;;;;12.25;11.75;;;;;20.23;63.69;101281.47;4972138;28;70598;-61
2021/07/19 03:55:33;;;;;;;;;15.75;13.25;;;;;20.22;63.39;101287.81;4973107;28;45292;-60
2021/07/19 03:57:58;;;;;;;;;13.50;10.25;;;;;20.17;63.58;101284.88;4972357;28;65090;-61
2021/07/19 04:00:24;;;;;;;;;13.25;10.00;;;;;20.16;63.83;101283.22;4972942;28;45305;-61
2021/07/19 04:02:52;;;;;;;;;12.00;10.00;;;;;20.14;63.80;101285.22;4972908;28;47403;-60
2021/07/19 04:05:18;;;;;;;;;12.00;11.00;;;;;20.12;63.79;101284.59;4973177;28;45199;-60
2021/07/19 04:07:45;;;;;;;;;14.00;10.00;;;;;20.13;63.57;101291.59;4974220;28;45227;-61
2021/07/19 04:10:12;;;;;;;;;12.25;10.00;;;;;20.13;63.83;101294.28;4972891;28;45469;-61
2021/07/19 04:12:44;;;;;;;;;14.00;12.00;;;;;20.12;63.78;101292.63;4974202;28;45476;-59
2021/07/19 04:15:10;;;;;;;;;11.00;10.00;;;;;20.13;64.11;101295.09;4973925;28;45296;-61
2021/07/19 04:17:36;;;;;;;;;13.75;12.00;;;;;20.13;63.55;101296.94;4972916;28;45367;-61
2021/07/19 04:20:06;;;;;;;;;11.25;11.00;;;;;20.14;64.10;101288.75;4973665;28;45242;-61
2021/07/19 04:22:32;;;;;;;;;8.25;8.25;;;;;20.13;64.24;101286.28;4973941;28;46121;-61
2021/07/19 04:24:58;;;;;;;;;9.00;8.00;;;;;20.11;64.49;101280.28;4972836;28;45682;-61
2021/07/19 04:27:23;;;;;;;;;11.25;10.00;;;;;20.13;64.23;101289.75;4972854;28;45340;-61
2021/07/19 04:29:49;;;;;;;;;10.75;8.00;;;;;20.13;64.00;101283.59;4956606;28;45613;-60
2021/07/19 04:32:20;;;;;;;;;9.00;8.00;;;;;20.14;64.36;101285.22;4973628;28;46186;-60
2021/07/19 04:34:45;;;;;;;;;7.75;7.75;;;;;20.14;63.96;101290.56;4973971;28;45834;-60
2021/07/19 04:37:10;;;;;;;;;9.50;8.50;;;;;20.10;64.47;101275.97;4973080;28;61460;-60
2021/07/19 04:39:36;;;;;;;;;9.00;9.00;;;;;20.08;64.26;101275.31;4973746;28;45208;-61
2021/07/19 04:42:03;;;;;;;;;9.25;8.75;;;;;20.09;64.34;101282.31;4973594;28;45788;-60
2021/07/19 04:44:28;;;;;;;;;9.75;9.00;;;;;20.07;64.67;101277.13;4973576;28;45244;-60
2021/07/19 04:46:54;;;;;;;;;9.00;7.25;;;;;20.08;64.40;101285.97;4973756;28;45246;-60
2021/07/19 04:49:19;;;;;;;;;12.00;9.00;;;;;20.08;64.62;101280.66;4973875;28;45170;-60
2021/07/19 04:51:46;;;;;;;;;14.75;11.00;;;;;20.07;64.59;101281.66;4972949;28;57940;-61
2021/07/19 04:54:11;;;;;;;;;14.00;8.75;;;;;20.07;64.77;101278.97;4972152;28;45963;-61
2021/07/19 04:56:37;;;;;;;;;11.25;9.25;;;;;20.08;64.64;101278.78;4956383;28;45794;-61
2021/07/19 04:59:02;;;;;;;;;11.50;10.75;;;;;20.11;64.28;101282.94;4955305;28;64165;-61
2021/07/19 05:01:28;;;;;;;;;12.75;11.25;;;;;20.13;64.00;101291.59;4971230;28;70628;-61
2021/07/19 05:03:54;;;;;;;;;10.00;9.00;;;;;20.16;64.10;101291.22;4973484;28;45440;-61
2021/07/19 05:06:19;;;;;;;;;14.00;12.25;;;;;20.17;64.19;101290.19;4972241;28;45367;-61
2021/07/19 05:08:46;;;;;;;;;10.75;8.00;;;;;20.21;64.24;101286.16;4971381;28;59699;-60
2021/07/19 05:11:11;;;;;;;;;13.50;9.50;;;;;20.26;64.31;101289.13;4957717;28;45383;-60
2021/07/19 05:13:37;;;;;;;;;13.00;10.50;;;;;20.31;64.02;101297.41;4955002;28;66108;-61
2021/07/19 05:16:02;;;;;;;;;9.50;8.50;;;;;20.34;64.54;101303.41;4972031;28;45652;-61
2021/07/19 05:18:30;;;;;;;;;10.25;9.00;;;;;20.38;64.28;101302.03;4971961;28;45364;-60
2021/07/19 05:20:55;;;;;;;;;11.50;10.00;;;;;20.39;63.87;101301.00;4955897;28;46481;-60
2021/07/19 05:23:22;;;;;;;;;11.25;9.25;;;;;20.40;63.62;101297.34;4973160;28;45343;-61
2021/07/19 05:25:47;;;;;;;;;13.25;10.00;;;;;;;;4973192;28;45427;-60
2021/07/19 05:28:13;;;;;;;;;10.00;10.00;;;;;20.46;63.81;101299.28;4972673;28;56235;-60
2021/07/19 05:30:46;;;;;;;;;9.50;9.25;;;;;20.50;63.90;101302.38;4973086;28;45356;-61
2021/07/19 05:33:12;;;;;;;;;13.25;10.25;;;;;20.52;63.77;101293.22;4974769;28;45406;-60
2021/07/19 05:35:38;;;;;;;;;10.00;10.00;;;;;20.56;63.67;101289.16;4976331;28;45494;-60
2021/07/19 05:38:03;;;;;;;;;12.75;9.50;;;;;20.60;63.83;101293.13;4976301;28;45521;-60
2021/07/19 05:40:31;;;;;;;;;9.50;8.00;;;;;20.65;63.91;101289.06;4975784;28;46260;-61
2021/07/19 05:42:56;;;;;;;;;12.50;10.75;;;;;20.68;63.65;101292.19;4976030;28;45426;-60
2021/07/19 05:45:22;;;;;;;;;10.50;10.00;;;;;20.75;63.65;101292.25;4976122;28;45346;-61
2021/07/19 05:47:47;;;;;;;;;10.75;9.00;;;;;20.81;63.26;101293.41;4976055;28;45497;-61
2021/07/19 05:50:13;;;;;;;;;11.75;11.75;;;;;20.86;63.37;101304.38;4975915;28;46049;-59
2021/07/19 05:52:38;;;;;;;;;9.00;9.00;;;;;20.92;62.93;101300.13;4975967;28;45198;-60
2021/07/19 05:55:05;;;;;;;;;11.00;10.50;;;;;20.98;62.58;101308.19;4975835;28;45283;-61
2021/07/19 05:57:30;;;;;;;;;10.50;9.50;;;;;21.04;62.82;101310.13;4975954;28;45466;-60
2021/07/19 05:59:56;;;;;;;;;11.50;9.75;;;;;21.09;62.47;101298.91;4958336;28;46312;-60
2021/07/19 06:02:25;;;;;;;;;14.00;12.75;;;;;21.15;62.53;101300.81;4974481;28;45363;-61
2021/07/19 06:04:51;;;;;;;;;14.75;10.75;;;;;21.20;62.50;101295.72;4975912;28;45389;-60
2021/07/19 06:07:16;;;;;;;;;12.50;11.00;;;;;21.26;62.36;101294.16;4975419;28;49181;-61
2021/07/19 06:09:42;;;;;;;;;11.00;9.25;;;;;21.33;61.98;101295.06;4975544;28;45814;-60
2021/07/19 06:12:08;;;;;;;;;12.00;10.25;;;;;21.40;62.02;101295.13;4975555;28;45472;-60
2021/07/19 06:14:33;;;;;;;;;12.25;9.25;;;;;21.49;61.50;101301.16;4975786;28;45386;-60
2021/07/19 06:16:59;;;;;;;;;11.00;9.25;;;;;21.57;61.42;101300.22;4974842;28;62175;-60
2021/07/19 06:19:24;;;;;;;;;9.33;8.67;;;;;21.68;61.28;101306.94;4975352;28;46023;-60
2021/07/19 06:21:49;;;;;;;;;11.75;9.50;;;;;21.78;60.99;101299.44;4974607;28;65901;-61
2021/07/19 06:24:15;;;;;;;;;11.50;11.00;;;;;21.87;60.35;101302.78;4974805;28;64163;-61
2021/07/19 06:26:40;;;;;;;;;9.00;8.00;;;;;21.94;60.33;101303.69;4975591;28;45278;-61
2021/07/19 06:29:05;;;;;;;;;12.00;12.00;;;;;21.99;60.40;101287.88;4974407;28;72578;-61
2021/07/19 06:31:31;;;;;;;;;10.75;10.00;;;;;22.08;60.12;101297.41;4974650;28;64048;-61
2021/07/19 06:33:57;;;;;;;;;11.25;10.25;;;;;22.18;59.65;101296.25;4975330;28;45284;-60
2021/07/19 06:36:23;;;;;;;;;16.00;12.00;;;;;22.27;59.89;101295.06;4974212;28;69467;-60
2021/07/19 06:38:48;;;;;;;;;12.25;11.50;;;;;22.35;59.40;101292.25;4975010;28;46822;-60
2021/07/19 06:41:14;;;;;;;;;12.25;12.00;;;;;22.43;58.94;101293.97;4974348;28;63844;-60
2021/07/19 06:43:40;;;;;;;;;9.75;9.25;;;;;22.55;58.64;101301.44;4975362;28;45319;-58
2021/07/19 06:46:05;;;;;;;;;10.00;9.00;;;;;22.65;58.72;101294.72;4975279;28;45316;-61
2021/07/19 06:48:31;;;;;;;;;10.50;10.50;;;;;22.77;58.48;101296.84;4973936;28;47000;-60
2021/07/19 06:50:57;;;;;;;;;12.25;9.25;;;;;22.89;58.37;101297.91;4975140;28;45796;-58
2021/07/19 06:53:22;;;;;;;;;11.00;10.00;;;;;22.98;58.09;101296.72;4974487;28;61339;-60
2021/07/19 06:55:47;;;;;;;;;10.75;10.00;;;;;23.05;57.85;101299.41;4974406;28;66306;-61
2021/07/19 06:58:13;;;;;;;;;12.00;10.25;;;;;23.18;57.56;101295.13;4974137;28;69295;-61
2021/07/19 07:00:39;;;;;;;;;12.75;11.25;;;;;23.25;57.51;101302.22;4974301;28;63630;-61
2021/07/19 07:03:04;;;;;;;;;14.00;11.50;;;;;23.36;57.42;101299.94;4975149;28;45370;-61
2021/07/19 07:05:29;;;;;;;;;9.25;9.25;;;;;23.45;56.89;101298.75;4974325;28;62072;-60
2021/07/19 07:07:55;;;;;;;;;9.00;9.00;;;;;23.53;56.54;101293.19;4975987;27;66622;-60
2021/07/19 07:10:20;;;;;;;;;10.50;10.00;;;;;23.62;56.80;101296.50;4974965;28;45303;-61
2021/07/19 07:12:45;;;;;;;;;11.25;11.00;;;;;23.70;56.13;101287.44;4975068;28;45358;-61
2021/07/19 07:15:11;;;;;;;;;8.00;8.00;;;;;23.81;56.21;101292.19;4974243;28;66091;-61
2021/07/19 07:17:38;;;;;;;;;12.75;8.25;;;;;23.93;56.10;101292.41;4974893;28;45441;-60
2021/07/19 07:20:04;;;;;;;;;9.75;8.25;;;;;24.05;55.90;101292.63;4974761;28;45313;-60
2021/07/19 07:22:29;;;;;;;;;10.25;10.00;;;;;24.19;55.13;101290.75;4974654;28;45293;-60
2021/07/19 07:24:55;;;;;;;;;13.00;9.00;;;;;24.32;54.60;101295.28;4973976;28;64620;-61
2021/07/19 07:27:20;;;;;;;;;8.00;8.00;;;;;24.44;54.62;101298.16;4974598;28;46188;-61
2021/07/19 07:29:46;;;;;;;;;9.50;8.25;;;;;24.54;53.98;101293.16;4974528;28;45315;-61
2021/07/19 07:32:11;;;;;;;;;8.75;8.75;;;;;24.66;53.74;101298.72;4973426;28;45383;-60
2021/07/19 07:34:37;;;;;;;;;10.25;8.75;;;;;24.80;53.32;101298.69;4974760;28;45370;-59
2021/07/19 07:37:02;;;;;;;;;11.25;8.25;;;;;24.91;53.16;101292.63;4973796;28;66536;-60
2021/07/19 07:39:28;;;;;;;;;9.50;8.25;;;;;25.04;52.52;101297.97;4974505;28;45329;-61
2021/07/19 07:41:53;;;;;;;;;6.75;6.50;;;;;25.15;52.25;101292.94;4973646;28;68281;-62
2021/07/19 07:44:19;;;;;;;;;11.00;8.50;;;;;25.26;51.72;101294.97;4974724;28;45228;-61
2021/07/19 07:46:44;;;;;;;;;9.50;7.00;;;;;25.39;50.85;101293.22;4974337;28;46060;-61
2021/07/19 07:49:10;;;;;;;;;12.25;8.75;;;;;25.49;50.77;101290.91;4974573;28;45252;-62
2021/07/19 07:51:35;;;;;;;;;9.75;9.75;;;;;25.59;50.50;101285.06;4974543;28;45208;-61
2021/07/19 07:54:00;;;;;;;;;7.00;7.00;;;;;25.69;50.04;101282.69;4973836;28;58973;-59
2021/07/19 07:56:27;;;;;;;;;7.75;7.75;;;;;25.82;49.71;101289.84;4973597;28;46029;-60
2021/07/19 07:58:52;;;;;;;;;12.25;8.00;;;;;25.93;49.14;101283.75;4974293;28;45310;-60
2021/07/19 08:01:17;;;;;;;;;9.50;7.50;;;;;26.04;49.10;101284.88;4974045;28;45869;-61
2021/07/19 08:03:43;;;;;;;;;9.00;8.00;;;;;26.16;48.96;101293.06;4973129;28;45417;-61
2021/07/19 08:06:08;;;;;;;;;9.50;6.50;;;;;26.28;48.10;101295.03;4973381;28;67642;-62
2021/07/19 08:08:34;;;;;;;;;7.50;6.25;;;;;26.38;47.77;101289.97;4973966;28;50863;-60
2021/07/19 08:10:59;;;;;;;;;10.25;8.00;;;;;26.54;47.73;101287.72;4973420;28;60770;-60
2021/07/19 08:13:25;;;;;;;;;7.00;7.00;;;;;26.66;47.32;101285.91;4974174;28;45599;-61
2021/07/19 08:15:50;;;;;;;;;8.25;7.25;;;;;26.80;46.37;101284.72;4973697;28;45902;-61
2021/07/19 08:18:16;;;;;;;;;7.75;7.75;;;;;26.95;46.16;101286.22;4973788;28;51522;-61
2021/07/19 08:20:42;;;;;;;;;8.00;8.00;;;;;27.09;45.92;101278.78;4973647;28;45309;-62
2021/07/19 08:23:08;;;;;;;;;10.00;8.00;;;;;27.22;45.59;101277.75;4973921;28;45194;-61
2021/07/19 08:25:33;;;;;;;;;7.00;7.00;;;;;27.35;44.86;101279.41;4972793;28;74585;-61
2021/07/19 08:27:58;;;;;;;;;8.25;7.25;;;;;27.49;45.17;101280.09;4973166;28;67446;-61
2021/07/19 08:30:24;;;;;;;;;6.50;6.00;;;;;27.63;44.18;101278.00;4973076;28;65125;-61
2021/07/19 08:32:49;;;;;;;;;9.75;6.75;;;;;27.77;43.43;101276.72;4973898;28;45561;-61
2021/07/19 08:35:14;;;;;;;;;6.25;6.00;;;;;27.91;42.52;101280.03;4973724;28;45228;-61
2021/07/19 08:37:40;;;;;;;;;14.25;7.00;;;;;28.02;42.22;101274.88;4972823;28;64082;-62
2021/07/19 08:40:07;;;;;;;;;7.00;7.00;;;;;28.14;41.15;101287.31;4973453;28;45384;-61
2021/07/19 08:42:34;;;;;;;;;6.00;5.50;;;;;28.25;40.30;101282.97;4973750;28;45307;-61
2021/07/19 08:44:59;;;;;;;;;8.00;5.00;;;;;28.35;40.07;101276.16;4973579;28;46157;-60
2021/07/19 08:47:25;;;;;;;;;9.75;5.75;;;;;28.47;39.31;101276.13;4973561;28;45423;-60
2021/07/19 08:49:50;;;;;;;;;5.00;5.00;;;;;28.53;38.94;101276.00;4972882;28;59460;-61
2021/07/19 08:52:16;;;;;;;;;8.50;6.25;;;;;28.62;39.31;101278.31;4973015;28;65509;-60
2021/07/19 08:54:47;;;;;;;;;6.50;5.25;;;;;28.72;39.42;101281.22;4973209;28;45398;-61
2021/07/19 08:57:12;;;;;;;;;7.00;5.00;;;;;28.82;38.72;101278.75;4972263;28;45467;-61
2021/07/19 08:59:38;;;;;;;;;6.75;5.00;;;;;28.94;38.51;101277.88;4971129;28;68970;-61
2021/07/19 09:02:04;;;;;;;;;5.75;4.25;;;;;29.04;38.00;101269.97;4972257;28;70440;-60
2021/07/19 09:04:30;;;;;;;;;6.50;4.50;;;;;29.18;38.00;101282.13;4974978;27;45272;-61
2021/07/19 09:06:55;;;;;;;;;5.75;4.25;;;;;29.31;37.78;101272.06;4955917;28;45268;-59
2021/07/19 09:09:31;;;;;;;;;7.25;5.00;;;;;29.44;38.05;101268.22;4976457;28;45778;-61
2021/07/19 09:11:57;;;;;;;;;7.75;6.00;;;;;29.54;37.23;101271.09;4975198;28;45549;-61
2021/07/19 09:14:22;;;;;;;;;4.75;4.00;;;;;29.66;37.80;101264.78;4976369;28;46219;-61
2021/07/19 09:16:48;;;;;;;;;6.00;5.25;;;;;29.79;37.25;101260.91;4976072;28;45358;-61
2021/07/19 09:19:15;;;;;;;;;7.25;6.00;;;;;29.84;36.70;101259.13;4976247;28;45352;-61
2021/07/19 09:21:42;;;;;;;;;5.75;5.00;;;;;29.91;37.14;101265.19;4976012;28;45630;-61
2021/07/19 09:24:13;;;;;;;;;7.00;5.00;;;;;29.99;36.67;101257.72;4974825;28;45432;-61
2021/07/19 09:26:39;;;;;;;;;6.00;4.75;;;;;30.05;36.25;101259.44;4975995;28;45763;-61
2021/07/19 09:29:06;;;;;;;;;5.00;5.00;;;;;30.13;37.16;101266.34;4974812;28;45229;-59
2021/07/19 09:31:38;;;;;;;;;5.00;4.50;;;;;30.24;36.12;101259.16;4975837;28;45445;-61
2021/07/19 09:34:19;;;;;;;;;6.75;5.75;;;;;30.33;35.88;101263.88;4976102;28;45374;-61
2021/07/19 09:37:02;;;;;;;;;6.00;5.00;;;;;30.45;35.85;101262.94;4976054;28;45453;-61
2021/07/19 09:39:29;;;;;;;;;7.25;5.00;;;;;30.53;36.09;101262.50;4975033;28;45430;-61
2021/07/19 09:42:21;;;;;;;;;6.00;4.25;;;;;30.65;36.20;101259.66;4976004;28;45588;-61
2021/07/19 09:44:56;;;;;;;;;6.75;4.50;;;;;30.80;35.87;101267.16;4979616;28;45387;-60
2021/07/19 09:47:40;;;;;;;;;5.50;4.75;;;;;30.90;35.24;101261.84;4974618;28;45777;-60
2021/07/19 09:50:13;;;;;;;;;5.75;5.00;;;;;30.93;34.78;101266.75;4976158;28;45441;-61
2021/07/19 09:52:38;;;;;;;;;7.50;6.75;;;;;31.00;35.43;101260.31;4975919;28;45196;-61
2021/07/19 09:55:04;;;;;;;;;6.00;6.00;;;;;31.06;35.60;101259.28;4975475;28;45954;-60
2021/07/19 09:57:29;;;;;;;;;5.50;5.50;;;;;31.12;34.74;101265.56;4975696;28;45395;-59
2021/07/19 09:59:56;;;;;;;;;10.25;8.00;;;;;31.19;34.60;101268.94;4974800;28;66871;-61
2021/07/19 10:02:40;;;;;;;;;8.00;6.00;;;;;31.22;34.55;101261.09;4975859;28;45337;-61
2021/07/19 10:05:07;;;;;;;;;7.25;6.00;;;;;31.30;34.73;101254.38;4975538;28;45351;-61
2021/07/19 10:07:33;;;;;;;;;7.25;7.25;;;;;31.38;34.54;101255.78;4975533;28;45881;-61
2021/07/19 10:10:05;;;;;;;;;6.75;5.75;;;;;31.47;34.00;101253.44;4975696;28;45269;-61
2021/07/19 10:12:30;;;;;;;;;5.75;5.75;;;;;31.54;34.31;101248.56;4975806;28;45390;-60
2021/07/19 10:14:56;;;;;;;;;11.25;6.75;;;;;31.60;33.66;101242.09;4975392;28;45618;-61
2021/07/19 10:17:22;;;;;;;;;6.00;6.00;;;;;31.71;34.35;101255.75;4974029;28;48012;-61
2021/07/19 10:19:47;;;;;;;;;6.75;5.50;;;;;31.81;33.67;101255.84;4973957;28;45368;-61
2021/07/19 10:22:13;;;;;;;;;8.00;6.00;;;;;31.86;33.69;101257.78;4957852;28;45547;-61
2021/07/19 10:24:39;;;;;;;;;5.75;5.75;;;;;31.87;33.55;101248.53;4975450;28;46001;-61
2021/07/19 10:27:05;;;;;;;;;6.25;5.00;;;;;31.88;33.25;101261.88;4975400;28;45777;-61
2021/07/19 10:29:30;;;;;;;;;6.25;6.00;;;;;31.90;33.54;101253.44;4973619;28;58978;-61
2021/07/19 10:31:56;;;;;;;;;6.00;6.00;;;;;31.95;33.16;101251.59;4974712;28;64579;-61
2021/07/19 10:34:21;;;;;;;;;6.75;5.00;;;;;31.99;33.09;101251.06;4956884;28;71520;-61
2021/07/19 10:36:58;;;;;;;;;6.50;5.75;;;;;32.01;33.20;101243.47;4973197;28;66375;-61
2021/07/19 10:39:26;;;;;;;;;6.75;5.25;;;;;32.06;33.07;101244.31;4974081;28;45228;-60
2021/07/19 10:42:03;;;;;;;;;8.25;5.00;;;;;32.15;32.30;101247.34;4977395;27;45635;-61
2021/07/19 10:44:33;;;;;;;;;9.00;5.75;;;;;32.23;32.19;101238.69;4973834;28;45462;-61
2021/07/19 10:47:19;;;;;;;;;5.50;4.75;;;;;32.31;32.21;101244.72;4975082;28;45826;-61
2021/07/19 10:49:57;;;;;;;;;6.25;6.25;;;;;32.36;32.05;101240.09;4974115;28;45400;-60
2021/07/19 10:52:34;;;;;;;;;7.75;5.25;;;;;32.42;32.20;101240.97;4975236;28;45555;-60
2021/07/19 10:55:01;;;;;;;;;7.00;6.00;;;;;32.50;32.06;101236.91;4973605;28;45415;-60
2021/07/19 10:57:36;;;;;;;;;6.75;6.00;;;;;32.58;32.53;101238.28;4974978;28;45324;-60
2021/07/19 11:00:06;;;;;;;;;8.75;6.50;;;;;32.67;32.18;101240.22;4974973;28;45443;-60
2021/07/19 11:02:31;;;;;;;;;9.00;7.25;;;;;32.78;31.67;101221.19;4973721;28;45364;-60
2021/07/19 11:04:57;;;;;;;;;7.75;5.00;;;;;32.85;32.02;101235.41;4974177;28;60988;-61
2021/07/19 11:07:23;;;;;;;;;5.75;4.75;;;;;32.92;32.07;101233.19;4973946;28;70432;-60
2021/07/19 11:09:48;;;;;;;;;6.25;4.25;;;;;33.00;31.14;101235.38;4974915;28;45322;-60
2021/07/19 11:12:16;;;;;;;;;7.25;7.25;;;;;33.13;31.30;101238.66;4972967;28;65206;-61
2021/07/19 11:14:50;;;;;;;;;8.25;6.50;;;;;33.17;31.22;101231.59;4974649;28;46181;-60
2021/07/19 11:17:17;;;;;;;;;5.25;5.25;;;;;33.24;30.89;101228.59;4975027;28;45930;-60